首页
METAR-TAF:

METAR-TAF

机场 :

上海浦东国际机场

上海 / 浦东, 中华人民共和国

纬度: 31-07N, 经度: 121-46E, 海拔: 4米

当前天气观测

该预报发布于38分钟前的23:30 UTC
风速16节,风向东南
温度 27°C
湿度 94%
气压 1005 hPa
能见度10公里或以上
散云层高于1100英尺
阴天层高于2300英尺
小阵雨

METAR: ZSPD 032330Z 13008MPS 9999 -SHRA SCT011 OVC023 27/26 Q1005 NOSIG

时间: 08:08 (00:08 UTC)

预报

该预报发布于2小时和53分钟前的21:15 UTC
预报有效从04日的 00点(UTC)到 04日的 24点(UTC)
风速25节,风向东南,有时为35节阵风
能見度: 6000
多云层高于1600英尺
短暂存在
从 04日的 07点(UTC)到 04日的 11点(UTC)
多云层高于1100英尺
少量云层高于3300英尺, 积雨云.
大阵雨
成为
从 04日的 14点(UTC)到 04日的 16点(UTC)
风速17节,风向

TAF: ZSPD 032115Z 0400/0424 14013G18MPS 6000 BKN016 TX32/0406Z TN26/0420Z TEMPO 0407/0411 +SHRA BKN011 FEW033CB BECMG 0414/0416 17009MPS

超过4000个机场的气象观测和天气预报(METAR&TAF报告)。

可查询的气象台以黄色和红色小点在地图上表示。

将鼠标移到小点上方,可查看气象台名称。

然后点击查看天气观测和预报。

如需切换地图:点击带黑十字的绿色按钮放大地图;点击带横线的绿色按钮缩小地图;或者点击绿色箭头查看邻近地区的地图。


METAR-TAF: